createdAt,value
2018-02-18T00:00:10.989Z,0.50
2018-02-18T00:01:05.283Z,0.50
2018-02-18T00:02:05.330Z,0.50
2018-02-18T00:03:11.062Z,0.50
2018-02-18T00:04:10.933Z,0.50
2018-02-18T00:05:05.948Z,0.50
2018-02-18T00:06:07.945Z,0.50
2018-02-18T00:07:08.955Z,0.50
2018-02-18T00:08:08.467Z,0.40
2018-02-18T00:09:15.983Z,0.50
2018-02-18T00:10:05.665Z,0.50
2018-02-18T00:11:10.317Z,0.40
2018-02-18T00:12:05.692Z,0.50
2018-02-18T00:13:05.534Z,0.50
2018-02-18T00:14:05.708Z,0.50
2018-02-18T00:15:05.870Z,0.40
2018-02-18T00:16:09.323Z,0.50
2018-02-18T00:17:05.999Z,0.40
2018-02-18T00:18:05.480Z,0.50
2018-02-18T00:19:05.742Z,0.40
2018-02-18T00:20:06.099Z,0.50
2018-02-18T00:21:07.830Z,0.40
2018-02-18T00:22:05.130Z,0.40
2018-02-18T00:23:05.198Z,0.50
2018-02-18T00:24:07.840Z,0.50
2018-02-18T00:25:05.277Z,0.50
2018-02-18T00:26:05.154Z,0.50
2018-02-18T00:27:05.797Z,0.50
2018-02-18T00:28:05.778Z,0.50
2018-02-18T00:29:06.063Z,0.50
2018-02-18T00:30:05.659Z,0.50
2018-02-18T00:31:05.078Z,0.40
2018-02-18T00:32:05.568Z,0.50
2018-02-18T00:33:05.765Z,0.50
2018-02-18T00:34:05.400Z,0.40
2018-02-18T00:35:05.874Z,0.40
2018-02-18T00:36:07.795Z,0.40
2018-02-18T00:37:07.704Z,0.40
2018-02-18T00:38:05.979Z,0.50
2018-02-18T00:39:08.145Z,0.40
2018-02-18T00:40:05.456Z,0.40
2018-02-18T00:41:10.339Z,0.50
2018-02-18T00:42:05.677Z,0.40
2018-02-18T00:43:05.708Z,0.50
2018-02-18T00:44:05.674Z,0.40
2018-02-18T00:45:05.948Z,0.50
2018-02-18T00:46:05.406Z,0.50
2018-02-18T00:47:08.393Z,0.40
2018-02-18T00:48:05.287Z,0.40
2018-02-18T00:49:05.921Z,0.40
2018-02-18T00:50:05.586Z,0.40
2018-02-18T00:51:05.782Z,0.40
2018-02-18T00:52:05.180Z,0.50
2018-02-18T00:53:05.151Z,0.50
2018-02-18T00:54:10.900Z,0.50
2018-02-18T00:55:10.962Z,0.50
2018-02-18T00:56:10.574Z,0.40
2018-02-18T00:57:10.935Z,0.40
2018-02-18T00:58:10.389Z,0.40
2018-02-18T00:59:05.712Z,0.40
2018-02-18T01:00:05.441Z,0.40
2018-02-18T01:01:05.306Z,0.40
2018-02-18T01:02:05.715Z,0.40
2018-02-18T01:03:08.378Z,0.40
2018-02-18T01:04:05.850Z,0.40
2018-02-18T01:05:08.089Z,0.50
2018-02-18T01:06:05.409Z,0.40
2018-02-18T01:07:08.292Z,0.50
2018-02-18T01:08:05.722Z,0.40
2018-02-18T01:09:05.035Z,0.40
2018-02-18T01:10:05.894Z,0.40
2018-02-18T01:11:05.330Z,0.40
2018-02-18T01:12:11.893Z,0.40
2018-02-18T01:13:05.256Z,0.40
2018-02-18T01:14:05.622Z,0.40
2018-02-18T01:15:08.913Z,0.40
2018-02-18T01:16:09.856Z,0.40
2018-02-18T01:17:08.788Z,0.40
2018-02-18T01:18:08.103Z,0.40
2018-02-18T01:19:10.560Z,0.40
2018-02-18T01:20:06.098Z,0.40
2018-02-18T01:21:05.836Z,0.40
2018-02-18T01:22:07.781Z,0.40
2018-02-18T01:23:05.132Z,0.40
2018-02-18T01:24:05.765Z,0.40
2018-02-18T01:25:09.503Z,0.40
2018-02-18T01:26:05.877Z,0.40
2018-02-18T01:27:05.555Z,0.40
2018-02-18T01:28:10.572Z,0.40
2018-02-18T01:29:05.922Z,0.40
2018-02-18T01:30:05.892Z,0.40
2018-02-18T01:31:07.706Z,0.40
2018-02-18T01:32:09.588Z,0.40
2018-02-18T01:33:05.949Z,0.40
2018-02-18T01:34:06.054Z,0.40
2018-02-18T01:35:05.369Z,0.40
2018-02-18T01:36:10.427Z,0.40
2018-02-18T01:37:05.839Z,0.40
2018-02-18T01:38:05.874Z,0.40
2018-02-18T01:39:05.805Z,0.40
2018-02-18T01:40:06.038Z,0.40
2018-02-18T01:41:05.482Z,0.40
2018-02-18T01:42:05.368Z,0.40
2018-02-18T01:43:06.143Z,0.40
2018-02-18T01:44:10.310Z,0.40
2018-02-18T01:45:08.840Z,0.40
2018-02-18T01:46:10.364Z,0.40
2018-02-18T01:47:10.607Z,0.40
2018-02-18T01:48:10.993Z,0.40
2018-02-18T01:49:05.046Z,0.40
2018-02-18T01:50:09.535Z,0.40
2018-02-18T01:51:06.014Z,0.40
2018-02-18T01:52:10.099Z,0.40
2018-02-18T01:53:08.811Z,0.40
2018-02-18T01:54:05.421Z,0.30
2018-02-18T01:55:09.231Z,0.40
2018-02-18T01:56:05.602Z,0.30
2018-02-18T01:57:05.305Z,0.40
2018-02-18T01:58:05.242Z,0.30
2018-02-18T01:59:05.884Z,0.40
2018-02-18T02:00:08.143Z,0.40
2018-02-18T02:01:05.141Z,0.30
2018-02-18T02:02:08.165Z,0.40
2018-02-18T02:03:08.051Z,0.40
2018-02-18T02:04:05.465Z,0.40
2018-02-18T02:05:06.984Z,0.40
2018-02-18T02:06:05.334Z,0.40
2018-02-18T02:07:05.440Z,0.40
2018-02-18T02:08:08.830Z,0.40
2018-02-18T02:09:05.398Z,0.30
2018-02-18T02:10:06.060Z,0.30
2018-02-18T02:11:05.617Z,0.40
2018-02-18T02:12:05.402Z,0.30
2018-02-18T02:13:05.246Z,0.30
2018-02-18T02:14:10.964Z,0.30
2018-02-18T02:15:05.414Z,0.30
2018-02-18T02:16:05.830Z,0.30
2018-02-18T02:17:06.054Z,0.30
2018-02-18T02:18:05.743Z,0.30
2018-02-18T02:19:06.077Z,0.30
2018-02-18T02:20:05.952Z,0.30
2018-02-18T02:21:08.005Z,0.30
2018-02-18T02:22:05.390Z,0.30
2018-02-18T02:23:08.511Z,0.30
2018-02-18T02:24:05.881Z,0.30
2018-02-18T02:25:05.847Z,0.30
2018-02-18T02:26:07.827Z,0.40
2018-02-18T02:27:07.649Z,0.30
2018-02-18T02:28:09.683Z,0.30
2018-02-18T02:29:11.159Z,0.30
2018-02-18T02:30:05.302Z,0.30
2018-02-18T02:31:06.286Z,0.40
2018-02-18T02:32:09.148Z,0.30
2018-02-18T02:33:05.582Z,0.30
2018-02-18T02:34:07.803Z,0.30
2018-02-18T02:35:08.445Z,0.30
2018-02-18T02:36:10.863Z,0.40
2018-02-18T02:37:07.844Z,0.30
2018-02-18T02:38:05.157Z,0.30
2018-02-18T02:39:08.635Z,0.40
2018-02-18T02:40:06.083Z,0.40
2018-02-18T02:41:05.605Z,0.40
2018-02-18T02:42:07.722Z,0.40
2018-02-18T02:43:05.226Z,0.30
2018-02-18T02:44:05.530Z,0.40
2018-02-18T02:45:08.219Z,0.40
2018-02-18T02:46:06.051Z,0.40
2018-02-18T02:47:11.302Z,0.40
2018-02-18T02:48:05.647Z,0.40
2018-02-18T02:49:08.864Z,0.30
2018-02-18T02:50:08.498Z,0.40
2018-02-18T02:51:10.911Z,0.30
2018-02-18T02:52:08.583Z,0.40
2018-02-18T02:53:06.075Z,0.40
2018-02-18T02:54:05.817Z,0.40
2018-02-18T02:55:10.929Z,0.40
2018-02-18T02:56:09.302Z,0.40
2018-02-18T02:57:10.741Z,0.40
2018-02-18T02:58:08.418Z,0.40
2018-02-18T02:59:05.969Z,0.40
2018-02-18T03:00:07.916Z,0.40
2018-02-18T03:01:07.729Z,0.40
2018-02-18T03:02:05.999Z,0.40
2018-02-18T03:03:05.724Z,0.40
2018-02-18T03:04:08.852Z,0.40
2018-02-18T03:05:05.228Z,0.40
2018-02-18T03:06:05.241Z,0.40
2018-02-18T03:07:08.231Z,0.40
2018-02-18T03:08:08.479Z,0.40
2018-02-18T03:09:05.819Z,0.40
2018-02-18T03:10:09.041Z,0.40
2018-02-18T03:11:08.405Z,0.40
2018-02-18T03:12:10.754Z,0.40
2018-02-18T03:13:05.922Z,0.40
2018-02-18T03:14:06.062Z,0.40
2018-02-18T03:15:05.507Z,0.40
2018-02-18T03:16:05.242Z,0.40
2018-02-18T03:17:10.855Z,0.40
2018-02-18T03:18:05.932Z,0.40
2018-02-18T03:19:05.583Z,0.50
2018-02-18T03:20:05.056Z,0.40
2018-02-18T03:21:05.834Z,0.40
2018-02-18T03:22:08.981Z,0.40
2018-02-18T03:23:06.342Z,0.40
2018-02-18T03:24:08.870Z,0.40
2018-02-18T03:25:05.209Z,0.40
2018-02-18T03:26:06.107Z,0.40
2018-02-18T03:27:05.828Z,0.50
2018-02-18T03:28:05.432Z,0.40
2018-02-18T03:29:09.134Z,0.40
2018-02-18T03:30:05.667Z,0.40
2018-02-18T03:31:09.128Z,0.40
2018-02-18T03:32:08.704Z,0.40
2018-02-18T03:33:05.081Z,0.40
2018-02-18T03:34:05.378Z,0.40
2018-02-18T03:35:05.815Z,0.40
2018-02-18T03:36:08.494Z,0.40
2018-02-18T03:37:05.842Z,0.40
2018-02-18T03:38:08.486Z,0.40
2018-02-18T03:39:08.458Z,0.40
2018-02-18T03:40:05.843Z,0.40
2018-02-18T03:41:05.672Z,0.40
2018-02-18T03:42:08.509Z,0.40
2018-02-18T03:43:06.104Z,0.40
2018-02-18T03:44:10.206Z,0.40
2018-02-18T03:45:05.383Z,0.40
2018-02-18T03:46:05.824Z,0.40
2018-02-18T03:47:05.945Z,0.40
2018-02-18T03:48:05.602Z,0.40
2018-02-18T03:49:05.378Z,0.40
2018-02-18T03:50:05.956Z,0.40
2018-02-18T03:51:05.553Z,0.40
2018-02-18T03:52:05.129Z,0.40
2018-02-18T03:53:06.172Z,0.40
2018-02-18T03:54:05.655Z,0.40
2018-02-18T03:55:05.497Z,0.40
2018-02-18T03:56:05.160Z,0.40
2018-02-18T03:57:05.573Z,0.40
2018-02-18T03:58:05.281Z,0.40
2018-02-18T03:59:05.896Z,0.40
2018-02-18T04:00:05.945Z,0.40
2018-02-18T04:01:05.479Z,0.40
2018-02-18T04:02:05.348Z,0.40
2018-02-18T04:03:05.906Z,0.40
2018-02-18T04:04:05.392Z,0.40
2018-02-18T04:05:05.878Z,0.40
2018-02-18T04:06:05.654Z,0.40
2018-02-18T04:07:05.185Z,0.40
2018-02-18T04:08:05.285Z,0.40
2018-02-18T04:09:06.019Z,0.40
2018-02-18T04:10:05.538Z,0.40
2018-02-18T04:11:11.088Z,0.40
2018-02-18T04:12:05.682Z,0.40
2018-02-18T04:13:05.336Z,0.40
2018-02-18T04:14:08.748Z,0.40
2018-02-18T04:15:05.078Z,0.40
2018-02-18T04:16:05.671Z,0.40
2018-02-18T04:17:10.698Z,0.40
2018-02-18T04:18:08.645Z,0.40
2018-02-18T04:19:06.053Z,0.40
2018-02-18T04:20:06.003Z,0.40
2018-02-18T04:21:08.773Z,0.40
2018-02-18T04:22:05.401Z,0.40
2018-02-18T04:23:05.835Z,0.40
2018-02-18T04:24:08.917Z,0.40
2018-02-18T04:25:05.282Z,0.40
2018-02-18T04:26:08.655Z,0.40
2018-02-18T04:27:05.980Z,0.40
2018-02-18T04:28:06.054Z,0.40
2018-02-18T04:29:05.691Z,0.40
2018-02-18T04:30:05.168Z,0.40
2018-02-18T04:31:05.703Z,0.50
2018-02-18T04:32:05.594Z,0.40
2018-02-18T04:33:08.864Z,0.40
2018-02-18T04:34:05.191Z,0.40
2018-02-18T04:35:05.605Z,0.40
2018-02-18T04:36:05.900Z,0.40
2018-02-18T04:37:05.253Z,0.40
2018-02-18T04:38:05.514Z,0.40
2018-02-18T04:39:05.165Z,0.40
2018-02-18T04:40:08.293Z,0.40
2018-02-18T04:41:05.742Z,0.40
2018-02-18T04:42:05.944Z,0.40
2018-02-18T04:43:05.755Z,0.40
2018-02-18T04:44:08.766Z,0.40
2018-02-18T04:45:05.088Z,0.40
2018-02-18T04:46:10.914Z,0.40
2018-02-18T04:47:06.188Z,0.40
2018-02-18T04:48:06.065Z,0.40
2018-02-18T04:49:06.202Z,0.40
2018-02-18T04:50:05.824Z,0.40
2018-02-18T04:51:05.599Z,0.40
2018-02-18T04:52:05.474Z,0.40
2018-02-18T04:53:05.251Z,0.40
2018-02-18T04:54:08.084Z,0.40
2018-02-18T04:55:10.506Z,0.40
2018-02-18T04:56:05.796Z,0.40
2018-02-18T04:57:05.298Z,0.40
2018-02-18T04:58:05.715Z,0.40
2018-02-18T04:59:05.564Z,0.40
2018-02-18T05:00:05.604Z,0.40
2018-02-18T05:01:05.501Z,0.40
2018-02-18T05:02:05.144Z,0.40
2018-02-18T05:03:10.753Z,0.40
2018-02-18T05:04:05.879Z,0.50
2018-02-18T05:05:05.329Z,0.50
2018-02-18T05:06:05.100Z,0.50
2018-02-18T05:07:10.128Z,0.40
2018-02-18T05:08:05.400Z,0.40
2018-02-18T05:09:05.431Z,0.40
2018-02-18T05:10:05.729Z,0.40
2018-02-18T05:11:05.362Z,0.50
2018-02-18T05:12:06.822Z,0.50
2018-02-18T05:13:05.266Z,0.40
2018-02-18T05:14:08.244Z,0.40
2018-02-18T05:15:10.687Z,0.50
2018-02-18T05:16:06.083Z,0.50
2018-02-18T05:17:05.677Z,0.40
2018-02-18T05:18:08.713Z,0.50
2018-02-18T05:19:05.085Z,0.40
2018-02-18T05:20:05.549Z,0.40
2018-02-18T05:21:10.674Z,0.50
2018-02-18T05:22:05.860Z,0.50
2018-02-18T05:23:05.290Z,0.50
2018-02-18T05:24:05.172Z,0.50
2018-02-18T05:25:06.092Z,0.50
2018-02-18T05:26:05.342Z,0.50
2018-02-18T05:27:10.268Z,0.50
2018-02-18T05:28:05.699Z,0.50
2018-02-18T05:29:05.093Z,0.50
2018-02-18T05:30:05.628Z,0.50
2018-02-18T05:31:05.264Z,0.40
2018-02-18T05:32:05.673Z,0.50
2018-02-18T05:33:05.605Z,0.40
2018-02-18T05:34:05.141Z,0.50
2018-02-18T05:35:06.211Z,0.50
2018-02-18T05:36:05.293Z,0.40
2018-02-18T05:37:05.635Z,0.40
2018-02-18T05:38:05.653Z,0.50
2018-02-18T05:39:07.567Z,0.50
2018-02-18T05:40:05.867Z,0.40
2018-02-18T05:41:05.201Z,0.50
2018-02-18T05:42:05.991Z,0.50
2018-02-18T05:43:08.630Z,0.40
2018-02-18T05:44:09.288Z,0.50
2018-02-18T05:45:08.406Z,0.40
2018-02-18T05:46:05.341Z,0.40
2018-02-18T05:47:10.458Z,0.40
2018-02-18T05:48:08.711Z,0.40
2018-02-18T05:49:05.133Z,0.40
2018-02-18T05:50:05.860Z,0.50
2018-02-18T05:51:07.842Z,0.50
2018-02-18T05:52:05.193Z,0.50
2018-02-18T05:53:05.165Z,0.50
2018-02-18T05:54:05.547Z,0.40
2018-02-18T05:55:09.302Z,0.50
2018-02-18T05:56:05.663Z,0.40
2018-02-18T05:57:05.660Z,0.40
2018-02-18T05:58:10.619Z,0.40
2018-02-18T05:59:05.180Z,0.40
2018-02-18T06:00:05.802Z,0.40
2018-02-18T06:01:09.408Z,0.40
2018-02-18T06:02:06.012Z,0.40
2018-02-18T06:03:08.508Z,0.40
2018-02-18T06:04:05.949Z,0.40
2018-02-18T06:05:05.540Z,0.40
2018-02-18T06:06:10.197Z,0.40
2018-02-18T06:07:09.230Z,0.40
2018-02-18T06:08:09.305Z,0.40
2018-02-18T06:09:08.168Z,0.40
2018-02-18T06:10:05.460Z,0.40
2018-02-18T06:11:05.140Z,0.40
2018-02-18T06:12:08.896Z,0.40
2018-02-18T06:13:08.741Z,0.40
2018-02-18T06:14:05.293Z,0.40
2018-02-18T06:15:05.759Z,0.40
2018-02-18T06:16:05.202Z,0.40
2018-02-18T06:17:05.293Z,0.40
2018-02-18T06:18:05.455Z,0.40
2018-02-18T06:19:10.948Z,0.40
2018-02-18T06:20:05.329Z,0.40
2018-02-18T06:21:06.063Z,0.40
2018-02-18T06:22:05.606Z,0.40
2018-02-18T06:23:05.465Z,0.40
2018-02-18T06:24:05.807Z,0.40
2018-02-18T06:25:05.752Z,0.40
2018-02-18T06:26:05.848Z,0.40
2018-02-18T06:27:10.768Z,0.40
2018-02-18T06:28:07.595Z,0.40
2018-02-18T06:29:08.453Z,0.40
2018-02-18T06:30:06.075Z,0.40
2018-02-18T06:31:05.229Z,0.40
2018-02-18T06:32:08.381Z,0.40
2018-02-18T06:33:10.844Z,0.40
2018-02-18T06:34:08.521Z,0.40
2018-02-18T06:35:05.928Z,0.40
2018-02-18T06:36:05.687Z,0.40
2018-02-18T06:37:05.796Z,0.40
2018-02-18T06:38:05.475Z,0.40
2018-02-18T06:39:05.837Z,0.40
2018-02-18T06:40:08.383Z,0.40
2018-02-18T06:41:05.692Z,0.40
2018-02-18T06:42:09.031Z,0.40
2018-02-18T06:43:09.044Z,0.40
2018-02-18T06:44:05.423Z,0.40
2018-02-18T06:45:05.328Z,0.40
2018-02-18T06:46:05.764Z,0.40
2018-02-18T06:47:05.725Z,0.40
2018-02-18T06:48:06.031Z,0.40
2018-02-18T06:49:05.745Z,0.50
2018-02-18T06:50:08.902Z,0.40
2018-02-18T06:51:10.353Z,0.40
2018-02-18T06:52:05.548Z,0.40
2018-02-18T06:53:11.600Z,0.50
2018-02-18T06:54:05.928Z,0.50
2018-02-18T06:55:05.799Z,0.50
2018-02-18T06:56:05.436Z,0.50
2018-02-18T06:57:06.126Z,0.50
2018-02-18T06:58:08.789Z,0.50
2018-02-18T06:59:05.208Z,0.50
2018-02-18T07:00:09.112Z,0.60
2018-02-18T07:01:05.496Z,0.50
2018-02-18T07:02:05.207Z,0.50
2018-02-18T07:03:09.467Z,0.60
2018-02-18T07:04:05.818Z,0.50
2018-02-18T07:05:08.674Z,0.60
2018-02-18T07:06:08.539Z,0.60
2018-02-18T07:07:06.125Z,0.60
2018-02-18T07:08:08.461Z,0.60
2018-02-18T07:09:05.844Z,0.60
2018-02-18T07:10:05.071Z,0.60
2018-02-18T07:11:10.476Z,0.60
2018-02-18T07:12:05.914Z,0.60
2018-02-18T07:13:05.768Z,0.60
2018-02-18T07:14:10.951Z,0.60
2018-02-18T07:15:06.028Z,0.60
2018-02-18T07:16:05.664Z,0.70
2018-02-18T07:17:05.731Z,0.70
2018-02-18T07:18:05.597Z,0.70
2018-02-18T07:19:06.034Z,0.60
2018-02-18T07:20:08.520Z,0.70
2018-02-18T07:21:05.869Z,0.70
2018-02-18T07:22:05.518Z,0.70
2018-02-18T07:23:05.860Z,0.70
2018-02-18T07:24:10.814Z,0.70
2018-02-18T07:25:06.092Z,0.70
2018-02-18T07:26:05.124Z,0.70
2018-02-18T07:27:05.541Z,0.70
2018-02-18T07:28:09.201Z,0.80
2018-02-18T07:29:05.824Z,0.80
2018-02-18T07:30:09.134Z,0.80
2018-02-18T07:31:05.760Z,0.80
2018-02-18T07:32:05.790Z,0.80
2018-02-18T07:33:05.654Z,0.80
2018-02-18T07:34:07.057Z,0.80
2018-02-18T07:35:05.530Z,0.80
2018-02-18T07:36:10.204Z,0.70
2018-02-18T07:37:10.693Z,0.80
2018-02-18T07:38:09.099Z,0.80
2018-02-18T07:39:05.472Z,0.80
2018-02-18T07:40:13.941Z,0.80
2018-02-18T07:41:05.323Z,0.80
2018-02-18T07:42:05.676Z,0.80
2018-02-18T07:43:07.820Z,0.80
2018-02-18T07:44:07.981Z,0.80
2018-02-18T07:45:05.329Z,0.80
2018-02-18T07:46:05.757Z,0.80
2018-02-18T07:47:05.797Z,0.80
2018-02-18T07:48:05.540Z,0.90
2018-02-18T07:49:08.517Z,0.90
2018-02-18T07:50:05.837Z,0.80
2018-02-18T07:51:07.781Z,0.90
2018-02-18T07:52:05.084Z,0.90
2018-02-18T07:53:05.629Z,0.90
2018-02-18T07:54:05.623Z,0.90
2018-02-18T07:55:05.486Z,0.90
2018-02-18T07:56:09.277Z,0.90
2018-02-18T07:57:08.179Z,0.90
2018-02-18T07:58:07.589Z,0.90
2018-02-18T07:59:05.915Z,0.90
2018-02-18T08:00:07.889Z,0.90
2018-02-18T08:01:05.249Z,0.90
2018-02-18T08:02:06.001Z,0.90
2018-02-18T08:03:08.328Z,0.90
2018-02-18T08:04:10.210Z,0.90
2018-02-18T08:05:05.558Z,1.00
2018-02-18T08:06:05.630Z,0.90
2018-02-18T08:07:05.985Z,0.90
2018-02-18T08:08:08.599Z,1.00
2018-02-18T08:09:05.944Z,1.00
2018-02-18T08:10:05.817Z,1.00
2018-02-18T08:11:05.799Z,1.00
2018-02-18T08:12:06.065Z,1.00
2018-02-18T08:13:07.845Z,1.00
2018-02-18T08:14:05.363Z,1.00
2018-02-18T08:15:06.004Z,1.00
2018-02-18T08:16:06.043Z,1.00
2018-02-18T08:17:05.815Z,1.10
2018-02-18T08:18:05.183Z,1.00
2018-02-18T08:19:10.835Z,1.10
2018-02-18T08:20:10.286Z,1.00
2018-02-18T08:21:05.648Z,1.10
2018-02-18T08:22:08.326Z,1.10
2018-02-18T08:23:05.717Z,1.10
2018-02-18T08:24:05.481Z,1.10
2018-02-18T08:25:05.254Z,1.10
2018-02-18T08:26:05.587Z,1.10
2018-02-18T08:27:05.290Z,1.10
2018-02-18T08:28:05.204Z,1.10
2018-02-18T08:29:05.168Z,1.10
2018-02-18T08:30:05.598Z,1.10
2018-02-18T08:31:05.204Z,1.10
2018-02-18T08:32:05.377Z,1.20
2018-02-18T08:33:05.674Z,1.20
2018-02-18T08:34:10.863Z,1.20
2018-02-18T08:35:05.222Z,1.20
2018-02-18T08:36:05.269Z,1.20
2018-02-18T08:37:05.150Z,1.20
2018-02-18T08:38:05.649Z,1.20
2018-02-18T08:39:05.097Z,1.20
2018-02-18T08:40:05.356Z,1.30
2018-02-18T08:41:05.888Z,1.20
2018-02-18T08:42:09.546Z,1.20
2018-02-18T08:43:05.916Z,1.20
2018-02-18T08:44:05.627Z,1.30
2018-02-18T08:45:05.646Z,1.30
2018-02-18T08:46:05.251Z,1.30
2018-02-18T08:47:07.772Z,1.30
2018-02-18T08:48:07.667Z,1.30
2018-02-18T08:49:06.013Z,1.30
2018-02-18T08:50:05.626Z,1.30
2018-02-18T08:51:05.618Z,1.30
2018-02-18T08:52:05.452Z,1.30
2018-02-18T08:53:05.884Z,1.30
2018-02-18T08:54:05.049Z,1.30
2018-02-18T08:55:05.790Z,1.30
2018-02-18T08:56:07.727Z,1.30
2018-02-18T08:57:05.128Z,1.30
2018-02-18T08:58:05.589Z,1.40
2018-02-18T08:59:05.129Z,1.40
2018-02-18T09:00:10.892Z,1.40
2018-02-18T09:01:06.262Z,1.40
2018-02-18T09:02:05.787Z,1.40
2018-02-18T09:03:05.709Z,1.40
2018-02-18T09:04:08.664Z,1.40
2018-02-18T09:05:06.091Z,1.40
2018-02-18T09:06:05.832Z,1.50
2018-02-18T09:07:05.447Z,1.50
2018-02-18T09:08:06.141Z,1.50
2018-02-18T09:09:05.274Z,1.50
2018-02-18T09:10:05.899Z,1.50
2018-02-18T09:11:12.733Z,1.50
2018-02-18T09:12:05.993Z,1.50
2018-02-18T09:13:08.821Z,1.60
2018-02-18T09:14:10.292Z,1.60
2018-02-18T09:15:07.967Z,1.60
2018-02-18T09:16:10.447Z,1.60
2018-02-18T09:17:08.791Z,1.60
2018-02-18T09:18:10.305Z,1.60
2018-02-18T09:19:05.495Z,1.60
2018-02-18T09:20:05.572Z,1.60
2018-02-18T09:21:06.416Z,1.70
2018-02-18T09:22:10.825Z,1.70
2018-02-18T09:23:05.740Z,1.60
2018-02-18T09:24:05.652Z,1.70
2018-02-18T09:25:11.076Z,1.70
2018-02-18T09:26:05.416Z,1.80
2018-02-18T09:27:10.136Z,1.80
2018-02-18T09:28:05.642Z,1.80
2018-02-18T09:29:08.568Z,1.90
2018-02-18T09:30:06.008Z,1.80
2018-02-18T09:31:10.919Z,1.80
2018-02-18T09:32:05.193Z,1.90
2018-02-18T09:33:11.079Z,1.90
2018-02-18T09:34:05.972Z,1.90
2018-02-18T09:35:05.860Z,1.90
2018-02-18T09:36:05.386Z,1.90
2018-02-18T09:37:05.279Z,1.90
2018-02-18T09:38:06.262Z,1.90
2018-02-18T09:39:05.424Z,2.00
2018-02-18T09:40:08.205Z,2.00
2018-02-18T09:41:05.920Z,2.00
2018-02-18T09:42:05.121Z,2.00
2018-02-18T09:43:05.644Z,2.00
2018-02-18T09:44:05.314Z,2.00
2018-02-18T09:45:05.446Z,2.00
2018-02-18T09:46:05.252Z,2.00
2018-02-18T09:47:08.588Z,2.10
2018-02-18T09:48:05.957Z,2.10
2018-02-18T09:49:10.928Z,2.10
2018-02-18T09:50:05.617Z,2.10
2018-02-18T09:51:05.365Z,2.10
2018-02-18T09:52:05.608Z,2.10
2018-02-18T09:53:10.189Z,2.20
2018-02-18T09:54:09.444Z,2.20
2018-02-18T09:55:06.366Z,2.20
2018-02-18T09:56:05.608Z,2.20
2018-02-18T09:57:07.672Z,2.20
2018-02-18T09:58:06.038Z,2.20
2018-02-18T09:59:05.832Z,2.30
2018-02-18T10:00:05.634Z,2.30
2018-02-18T10:01:06.938Z,2.20
2018-02-18T10:02:08.576Z,2.30
2018-02-18T10:03:10.996Z,2.30
2018-02-18T10:04:05.769Z,2.30
2018-02-18T10:05:08.785Z,2.30
2018-02-18T10:06:05.158Z,2.30
2018-02-18T10:07:05.830Z,2.30
2018-02-18T10:08:10.356Z,2.30
2018-02-18T10:09:05.719Z,2.30
2018-02-18T10:10:05.356Z,2.40
2018-02-18T10:11:05.699Z,2.40
2018-02-18T10:12:05.340Z,2.40
2018-02-18T10:13:05.291Z,2.40
2018-02-18T10:14:05.197Z,2.40
2018-02-18T10:15:05.931Z,2.40
2018-02-18T10:16:09.142Z,2.40
2018-02-18T10:17:10.543Z,2.40
2018-02-18T10:18:05.708Z,2.40
2018-02-18T10:19:05.030Z,2.40
2018-02-18T10:20:05.477Z,2.40
2018-02-18T10:21:05.783Z,2.50
2018-02-18T10:22:05.108Z,2.40
2018-02-18T10:23:05.577Z,2.50
2018-02-18T10:24:08.624Z,2.50
2018-02-18T10:25:05.992Z,2.50
2018-02-18T10:26:05.728Z,2.50
2018-02-18T10:27:05.102Z,2.40
2018-02-18T10:28:10.716Z,2.40
2018-02-18T10:29:08.400Z,2.40
2018-02-18T10:30:05.979Z,2.50
2018-02-18T10:31:05.702Z,2.40
2018-02-18T10:32:05.392Z,2.50
2018-02-18T10:33:10.227Z,2.50
2018-02-18T10:34:05.525Z,2.50
2018-02-18T10:35:05.345Z,2.50
2018-02-18T10:36:08.338Z,2.40
2018-02-18T10:37:07.633Z,2.50
2018-02-18T10:38:08.787Z,2.50
2018-02-18T10:39:05.142Z,2.40
2018-02-18T10:40:05.522Z,2.50
2018-02-18T10:41:09.227Z,2.50
2018-02-18T10:42:05.627Z,2.50
2018-02-18T10:43:08.501Z,2.50
2018-02-18T10:44:05.508Z,2.50
2018-02-18T10:45:05.632Z,2.50
2018-02-18T10:46:10.655Z,2.50
2018-02-18T10:47:11.067Z,2.50
2018-02-18T10:48:05.415Z,2.50
2018-02-18T10:49:06.051Z,2.50
2018-02-18T10:50:05.533Z,2.50
2018-02-18T10:51:08.587Z,2.60
2018-02-18T10:52:06.062Z,2.50
2018-02-18T10:53:05.169Z,2.60
2018-02-18T10:54:05.499Z,2.60
2018-02-18T10:55:05.485Z,2.50
2018-02-18T10:56:05.901Z,2.60
2018-02-18T10:57:08.707Z,2.60
2018-02-18T10:58:06.039Z,2.60
2018-02-18T10:59:10.981Z,2.60
2018-02-18T11:00:05.799Z,2.60
2018-02-18T11:01:05.716Z,2.60
2018-02-18T11:02:07.991Z,2.70
2018-02-18T11:03:05.423Z,2.60
2018-02-18T11:04:05.790Z,2.70
2018-02-18T11:05:06.534Z,2.60
2018-02-18T11:06:07.747Z,2.70
2018-02-18T11:07:05.061Z,2.70
2018-02-18T11:08:05.941Z,2.70
2018-02-18T11:09:06.213Z,2.60
2018-02-18T11:10:05.438Z,2.70
2018-02-18T11:11:05.467Z,2.60
2018-02-18T11:12:08.432Z,2.60
2018-02-18T11:13:05.837Z,2.60
2018-02-18T11:14:05.840Z,2.60
2018-02-18T11:15:05.882Z,2.70
2018-02-18T11:16:10.821Z,2.70
2018-02-18T11:17:05.393Z,2.60
2018-02-18T11:18:05.156Z,2.60
2018-02-18T11:19:07.783Z,2.60
2018-02-18T11:20:09.313Z,2.60
2018-02-18T11:21:05.232Z,2.60
2018-02-18T11:22:05.560Z,2.70
2018-02-18T11:23:09.073Z,2.70
2018-02-18T11:24:05.502Z,2.60
2018-02-18T11:25:10.849Z,2.60
2018-02-18T11:26:05.942Z,2.60
2018-02-18T11:27:05.367Z,2.60
2018-02-18T11:28:08.810Z,2.60
2018-02-18T11:29:05.371Z,2.60
2018-02-18T11:30:05.793Z,2.60
2018-02-18T11:31:05.857Z,2.70
2018-02-18T11:32:10.221Z,2.60
2018-02-18T11:33:05.692Z,2.60
2018-02-18T11:34:05.995Z,2.60
2018-02-18T11:35:13.617Z,2.70
2018-02-18T11:36:08.614Z,2.70
2018-02-18T11:37:06.090Z,2.70
2018-02-18T11:38:05.680Z,2.70
2018-02-18T11:39:05.940Z,2.70
2018-02-18T11:40:05.574Z,2.70
2018-02-18T11:41:12.663Z,2.60
2018-02-18T11:42:09.523Z,2.70
2018-02-18T11:43:07.758Z,2.70
2018-02-18T11:44:05.150Z,2.70
2018-02-18T11:45:06.058Z,2.70
2018-02-18T11:46:05.702Z,2.70
2018-02-18T11:47:11.247Z,2.70
2018-02-18T11:48:05.526Z,2.70
2018-02-18T11:49:07.809Z,2.70
2018-02-18T11:50:05.088Z,2.70
2018-02-18T11:51:06.059Z,2.70
2018-02-18T11:52:05.858Z,2.70
2018-02-18T11:53:05.901Z,2.70
2018-02-18T11:54:05.895Z,2.60
2018-02-18T11:55:07.997Z,2.70
2018-02-18T11:56:05.416Z,2.70
2018-02-18T11:57:05.356Z,2.60
2018-02-18T11:58:08.300Z,2.70
2018-02-18T11:59:05.691Z,2.60
2018-02-18T12:00:09.258Z,2.70
2018-02-18T12:01:10.698Z,2.70
2018-02-18T12:02:06.002Z,2.70
2018-02-18T12:03:05.492Z,2.70
2018-02-18T12:04:06.092Z,2.70
2018-02-18T12:05:09.163Z,2.70
2018-02-18T12:06:05.479Z,2.70
2018-02-18T12:07:05.726Z,2.80
2018-02-18T12:08:10.481Z,2.80
2018-02-18T12:09:08.999Z,2.80
2018-02-18T12:10:05.509Z,2.80
2018-02-18T12:11:08.485Z,2.80
2018-02-18T12:12:05.833Z,2.80
2018-02-18T12:13:05.871Z,2.80
2018-02-18T12:14:05.298Z,2.80
2018-02-18T12:15:05.383Z,2.80
2018-02-18T12:16:05.720Z,2.90
2018-02-18T12:17:05.211Z,2.90
2018-02-18T12:18:05.776Z,2.90
2018-02-18T12:19:05.607Z,2.90
2018-02-18T12:20:05.684Z,2.90
2018-02-18T12:21:05.099Z,2.90
2018-02-18T12:22:08.151Z,2.90
2018-02-18T12:23:05.536Z,2.90
2018-02-18T12:24:09.267Z,2.90
2018-02-18T12:25:05.578Z,2.90
2018-02-18T12:26:09.972Z,2.90
2018-02-18T12:27:05.330Z,2.90
2018-02-18T12:28:05.231Z,3.00
2018-02-18T12:29:09.190Z,3.00
2018-02-18T12:30:05.604Z,2.90
2018-02-18T12:31:10.963Z,3.00
2018-02-18T12:32:05.464Z,3.00
2018-02-18T12:33:05.986Z,3.00
2018-02-18T12:34:08.814Z,3.00
2018-02-18T12:35:08.531Z,3.10
2018-02-18T12:36:09.462Z,3.10
2018-02-18T12:37:05.859Z,3.00
2018-02-18T12:38:05.309Z,3.10
2018-02-18T12:39:08.122Z,3.10
2018-02-18T12:40:05.468Z,3.10
2018-02-18T12:41:09.302Z,3.10
2018-02-18T12:42:05.757Z,3.10
2018-02-18T12:43:05.176Z,3.20
2018-02-18T12:44:05.322Z,3.10
2018-02-18T12:45:08.756Z,3.20
2018-02-18T12:46:05.126Z,3.20
2018-02-18T12:47:05.945Z,3.20
2018-02-18T12:48:08.850Z,3.20
2018-02-18T12:49:05.225Z,3.20
2018-02-18T12:50:10.812Z,3.20
2018-02-18T12:51:11.100Z,3.20
2018-02-18T12:52:10.213Z,3.20
2018-02-18T12:53:05.483Z,3.20
2018-02-18T12:54:05.925Z,3.20
2018-02-18T12:55:05.605Z,3.20
2018-02-18T12:56:05.227Z,3.20
2018-02-18T12:57:05.946Z,3.20
2018-02-18T12:58:08.245Z,3.20
2018-02-18T12:59:05.932Z,3.20
2018-02-18T13:00:05.451Z,3.30
2018-02-18T13:01:06.273Z,3.20
2018-02-18T13:02:06.100Z,3.20
2018-02-18T13:03:05.318Z,3.20
2018-02-18T13:04:08.471Z,3.20
2018-02-18T13:05:09.118Z,3.20
2018-02-18T13:06:08.064Z,3.20
2018-02-18T13:07:05.404Z,3.20
2018-02-18T13:08:05.444Z,3.20
2018-02-18T13:09:05.303Z,3.20
2018-02-18T13:10:06.834Z,3.30
2018-02-18T13:11:11.256Z,3.30
2018-02-18T13:12:05.576Z,3.30
2018-02-18T13:13:09.187Z,3.20
2018-02-18T13:14:05.616Z,3.20
2018-02-18T13:15:09.247Z,3.30
2018-02-18T13:16:05.767Z,3.20
2018-02-18T13:17:09.110Z,3.30
2018-02-18T13:18:05.433Z,3.30